sensor_id;sensor_type;location;lat;lon;timestamp;P1;durP1;ratioP1;P2;durP2;ratioP2
6135;SDS011;24008;42.664;23.372;2022-08-01T00:00:36;5.17;;;4.67;;
6135;SDS011;24008;42.664;23.372;2022-08-01T00:03:03;5.13;;;4.70;;
6135;SDS011;24008;42.664;23.372;2022-08-01T00:05:29;5.30;;;4.80;;
6135;SDS011;24008;42.664;23.372;2022-08-01T00:07:58;5.63;;;4.77;;
6135;SDS011;24008;42.664;23.372;2022-08-01T00:10:25;5.00;;;4.50;;
6135;SDS011;24008;42.664;23.372;2022-08-01T00:12:52;4.83;;;4.43;;
6135;SDS011;24008;42.664;23.372;2022-08-01T00:15:19;4.77;;;4.37;;
6135;SDS011;24008;42.664;23.372;2022-08-01T00:17:45;5.10;;;4.10;;
6135;SDS011;24008;42.664;23.372;2022-08-01T00:20:13;8.37;;;4.40;;
6135;SDS011;24008;42.664;23.372;2022-08-01T00:22:40;4.50;;;4.10;;
6135;SDS011;24008;42.664;23.372;2022-08-01T00:25:09;4.67;;;3.87;;
6135;SDS011;24008;42.664;23.372;2022-08-01T00:27:36;6.67;;;6.07;;
6135;SDS011;24008;42.664;23.372;2022-08-01T00:30:03;8.27;;;7.10;;
6135;SDS011;24008;42.664;23.372;2022-08-01T00:32:31;8.07;;;7.23;;
6135;SDS011;24008;42.664;23.372;2022-08-01T00:34:58;8.67;;;7.77;;
6135;SDS011;24008;42.664;23.372;2022-08-01T00:37:25;10.83;;;9.73;;
6135;SDS011;24008;42.664;23.372;2022-08-01T00:39:52;11.90;;;10.73;;
6135;SDS011;24008;42.664;23.372;2022-08-01T00:42:20;11.90;;;10.70;;
6135;SDS011;24008;42.664;23.372;2022-08-01T00:44:47;11.93;;;10.73;;
6135;SDS011;24008;42.664;23.372;2022-08-01T00:47:15;11.80;;;10.70;;
6135;SDS011;24008;42.664;23.372;2022-08-01T00:49:42;12.27;;;11.07;;
6135;SDS011;24008;42.664;23.372;2022-08-01T00:52:09;11.83;;;10.70;;
6135;SDS011;24008;42.664;23.372;2022-08-01T00:54:37;11.90;;;10.80;;
6135;SDS011;24008;42.664;23.372;2022-08-01T00:57:04;11.07;;;9.93;;
6135;SDS011;24008;42.664;23.372;2022-08-01T00:59:32;11.17;;;10.17;;
6135;SDS011;24008;42.664;23.372;2022-08-01T01:02:00;16.20;;;10.03;;
6135;SDS011;24008;42.664;23.372;2022-08-01T01:04:27;11.20;;;10.10;;
6135;SDS011;24008;42.664;23.372;2022-08-01T01:06:55;11.50;;;10.37;;
6135;SDS011;24008;42.664;23.372;2022-08-01T01:09:33;12.33;;;10.60;;
6135;SDS011;24008;42.664;23.372;2022-08-01T01:12:06;10.90;;;9.90;;
6135;SDS011;24008;42.664;23.372;2022-08-01T01:14:44;10.80;;;9.70;;
6135;SDS011;24008;42.664;23.372;2022-08-01T01:17:16;10.60;;;9.70;;
6135;SDS011;24008;42.664;23.372;2022-08-01T01:19:47;10.17;;;9.27;;
6135;SDS011;24008;42.664;23.372;2022-08-01T01:22:25;10.50;;;9.40;;
6135;SDS011;24008;42.664;23.372;2022-08-01T01:25:10;9.70;;;8.80;;
6135;SDS011;24008;42.664;23.372;2022-08-01T01:27:57;10.90;;;9.80;;
6135;SDS011;24008;42.664;23.372;2022-08-01T01:30:36;10.13;;;8.87;;
6135;SDS011;24008;42.664;23.372;2022-08-01T01:33:06;8.83;;;8.07;;
6135;SDS011;24008;42.664;23.372;2022-08-01T01:35:37;9.50;;;8.50;;
6135;SDS011;24008;42.664;23.372;2022-08-01T01:38:09;9.80;;;8.87;;
6135;SDS011;24008;42.664;23.372;2022-08-01T01:40:40;9.37;;;8.47;;
6135;SDS011;24008;42.664;23.372;2022-08-01T01:43:09;9.80;;;8.80;;
6135;SDS011;24008;42.664;23.372;2022-08-01T01:45:39;11.37;;;9.33;;
6135;SDS011;24008;42.664;23.372;2022-08-01T01:48:07;10.80;;;9.30;;
6135;SDS011;24008;42.664;23.372;2022-08-01T01:50:35;9.90;;;8.97;;
6135;SDS011;24008;42.664;23.372;2022-08-01T01:53:03;10.20;;;8.73;;
6135;SDS011;24008;42.664;23.372;2022-08-01T01:55:33;10.40;;;8.93;;
6135;SDS011;24008;42.664;23.372;2022-08-01T01:58:01;10.20;;;9.03;;
6135;SDS011;24008;42.664;23.372;2022-08-01T02:00:29;9.70;;;8.80;;
6135;SDS011;24008;42.664;23.372;2022-08-01T02:02:59;11.23;;;8.60;;
6135;SDS011;24008;42.664;23.372;2022-08-01T02:05:27;10.00;;;9.00;;
6135;SDS011;24008;42.664;23.372;2022-08-01T02:07:55;10.50;;;9.50;;
6135;SDS011;24008;42.664;23.372;2022-08-01T02:10:23;10.57;;;9.47;;
6135;SDS011;24008;42.664;23.372;2022-08-01T02:12:51;10.33;;;9.10;;
6135;SDS011;24008;42.664;23.372;2022-08-01T02:15:18;10.93;;;9.33;;
6135;SDS011;24008;42.664;23.372;2022-08-01T02:17:47;10.20;;;9.07;;
6135;SDS011;24008;42.664;23.372;2022-08-01T02:20:17;10.27;;;7.53;;
6135;SDS011;24008;42.664;23.372;2022-08-01T02:22:46;9.63;;;7.17;;
6135;SDS011;24008;42.664;23.372;2022-08-01T02:25:18;8.33;;;7.07;;
6135;SDS011;24008;42.664;23.372;2022-08-01T02:27:50;7.53;;;6.70;;
6135;SDS011;24008;42.664;23.372;2022-08-01T02:30:22;9.17;;;6.73;;
6135;SDS011;24008;42.664;23.372;2022-08-01T02:32:53;8.10;;;6.70;;
6135;SDS011;24008;42.664;23.372;2022-08-01T02:35:29;7.10;;;6.40;;
6135;SDS011;24008;42.664;23.372;2022-08-01T02:38:00;7.63;;;6.57;;
6135;SDS011;24008;42.664;23.372;2022-08-01T02:40:29;7.57;;;6.87;;
6135;SDS011;24008;42.664;23.372;2022-08-01T02:43:00;8.03;;;7.23;;
6135;SDS011;24008;42.664;23.372;2022-08-01T02:45:29;7.07;;;6.40;;
6135;SDS011;24008;42.664;23.372;2022-08-01T02:47:59;10.23;;;6.80;;
6135;SDS011;24008;42.664;23.372;2022-08-01T02:50:33;10.10;;;6.73;;
6135;SDS011;24008;42.664;23.372;2022-08-01T02:53:01;7.60;;;6.60;;
6135;SDS011;24008;42.664;23.372;2022-08-01T02:55:28;8.13;;;6.20;;
6135;SDS011;24008;42.664;23.372;2022-08-01T02:57:57;6.80;;;6.10;;
6135;SDS011;24008;42.664;23.372;2022-08-01T03:00:26;7.40;;;6.70;;
6135;SDS011;24008;42.664;23.372;2022-08-01T03:02:56;6.77;;;6.07;;
6135;SDS011;24008;42.664;23.372;2022-08-01T03:05:24;8.13;;;6.27;;
6135;SDS011;24008;42.664;23.372;2022-08-01T03:07:55;12.87;;;6.47;;
6135;SDS011;24008;42.664;23.372;2022-08-01T03:10:23;8.70;;;7.80;;
6135;SDS011;24008;42.664;23.372;2022-08-01T03:12:53;8.60;;;7.67;;
6135;SDS011;24008;42.664;23.372;2022-08-01T03:15:21;10.20;;;8.17;;
6135;SDS011;24008;42.664;23.372;2022-08-01T03:17:51;10.60;;;7.90;;
6135;SDS011;24008;42.664;23.372;2022-08-01T03:20:19;11.97;;;9.73;;
6135;SDS011;24008;42.664;23.372;2022-08-01T03:22:50;14.83;;;9.57;;
6135;SDS011;24008;42.664;23.372;2022-08-01T03:25:21;9.70;;;8.73;;
6135;SDS011;24008;42.664;23.372;2022-08-01T03:27:50;8.73;;;7.90;;
6135;SDS011;24008;42.664;23.372;2022-08-01T03:30:21;10.53;;;9.43;;
6135;SDS011;24008;42.664;23.372;2022-08-01T03:32:50;9.63;;;8.70;;
6135;SDS011;24008;42.664;23.372;2022-08-01T03:35:18;12.83;;;8.83;;
6135;SDS011;24008;42.664;23.372;2022-08-01T03:37:46;14.47;;;8.03;;
6135;SDS011;24008;42.664;23.372;2022-08-01T03:40:17;8.40;;;7.60;;
6135;SDS011;24008;42.664;23.372;2022-08-01T03:42:51;10.00;;;8.23;;
6135;SDS011;24008;42.664;23.372;2022-08-01T03:45:23;9.57;;;7.27;;
6135;SDS011;24008;42.664;23.372;2022-08-01T03:47:55;17.53;;;14.70;;
6135;SDS011;24008;42.664;23.372;2022-08-01T03:50:25;23.20;;;16.37;;
6135;SDS011;24008;42.664;23.372;2022-08-01T03:52:55;8.50;;;7.70;;
6135;SDS011;24008;42.664;23.372;2022-08-01T03:55:26;8.50;;;6.97;;
6135;SDS011;24008;42.664;23.372;2022-08-01T03:57:56;15.60;;;12.83;;
6135;SDS011;24008;42.664;23.372;2022-08-01T04:00:24;17.57;;;9.50;;
6135;SDS011;24008;42.664;23.372;2022-08-01T04:02:52;8.43;;;7.27;;
6135;SDS011;24008;42.664;23.372;2022-08-01T04:05:19;13.17;;;7.17;;
6135;SDS011;24008;42.664;23.372;2022-08-01T04:07:47;9.57;;;6.47;;
6135;SDS011;24008;42.664;23.372;2022-08-01T04:10:21;13.37;;;8.87;;
6135;SDS011;24008;42.664;23.372;2022-08-01T04:12:49;10.60;;;7.27;;
6135;SDS011;24008;42.664;23.372;2022-08-01T04:15:16;13.70;;;8.93;;
6135;SDS011;24008;42.664;23.372;2022-08-01T04:17:45;7.97;;;7.17;;
6135;SDS011;24008;42.664;23.372;2022-08-01T04:20:12;8.00;;;7.23;;
6135;SDS011;24008;42.664;23.372;2022-08-01T04:22:40;10.37;;;7.33;;
6135;SDS011;24008;42.664;23.372;2022-08-01T04:25:09;10.23;;;7.67;;
6135;SDS011;24008;42.664;23.372;2022-08-01T04:27:41;10.37;;;7.87;;
6135;SDS011;24008;42.664;23.372;2022-08-01T04:30:13;13.67;;;7.93;;
6135;SDS011;24008;42.664;23.372;2022-08-01T04:32:42;11.03;;;8.20;;
6135;SDS011;24008;42.664;23.372;2022-08-01T04:35:11;10.10;;;8.00;;
6135;SDS011;24008;42.664;23.372;2022-08-01T04:37:42;10.70;;;8.40;;
6135;SDS011;24008;42.664;23.372;2022-08-01T04:40:13;8.50;;;7.70;;
6135;SDS011;24008;42.664;23.372;2022-08-01T04:42:41;14.63;;;8.77;;
6135;SDS011;24008;42.664;23.372;2022-08-01T04:45:08;12.60;;;7.93;;
6135;SDS011;24008;42.664;23.372;2022-08-01T04:47:39;11.17;;;7.90;;
6135;SDS011;24008;42.664;23.372;2022-08-01T04:50:07;13.53;;;8.43;;
6135;SDS011;24008;42.664;23.372;2022-08-01T04:52:36;9.37;;;7.10;;
6135;SDS011;24008;42.664;23.372;2022-08-01T04:55:04;9.03;;;6.47;;
6135;SDS011;24008;42.664;23.372;2022-08-01T04:57:32;8.85;;;6.30;;
6135;SDS011;24008;42.664;23.372;2022-08-01T05:00:02;10.60;;;6.35;;
6135;SDS011;24008;42.664;23.372;2022-08-01T05:02:31;9.45;;;6.40;;
6135;SDS011;24008;42.664;23.372;2022-08-01T05:05:00;11.02;;;6.80;;
6135;SDS011;24008;42.664;23.372;2022-08-01T05:07:27;10.20;;;7.05;;
6135;SDS011;24008;42.664;23.372;2022-08-01T05:09:54;10.70;;;7.30;;
6135;SDS011;24008;42.664;23.372;2022-08-01T05:12:21;8.10;;;6.30;;
6135;SDS011;24008;42.664;23.372;2022-08-01T05:14:48;11.45;;;6.60;;
6135;SDS011;24008;42.664;23.372;2022-08-01T05:17:16;8.23;;;6.25;;
6135;SDS011;24008;42.664;23.372;2022-08-01T05:19:42;23.23;;;10.20;;
6135;SDS011;24008;42.664;23.372;2022-08-01T05:22:11;12.25;;;6.93;;
6135;SDS011;24008;42.664;23.372;2022-08-01T05:24:39;9.15;;;6.80;;
6135;SDS011;24008;42.664;23.372;2022-08-01T05:27:07;8.85;;;7.03;;
6135;SDS011;24008;42.664;23.372;2022-08-01T05:29:34;9.38;;;6.53;;
6135;SDS011;24008;42.664;23.372;2022-08-01T05:32:01;13.45;;;9.10;;
6135;SDS011;24008;42.664;23.372;2022-08-01T05:34:29;13.70;;;8.80;;
6135;SDS011;24008;42.664;23.372;2022-08-01T05:36:56;8.10;;;6.60;;
6135;SDS011;24008;42.664;23.372;2022-08-01T05:39:24;10.43;;;6.55;;
6135;SDS011;24008;42.664;23.372;2022-08-01T05:41:51;8.13;;;6.32;;
6135;SDS011;24008;42.664;23.372;2022-08-01T05:44:19;15.32;;;11.57;;
6135;SDS011;24008;42.664;23.372;2022-08-01T05:46:46;12.93;;;7.75;;
6135;SDS011;24008;42.664;23.372;2022-08-01T05:49:13;8.10;;;5.45;;
6135;SDS011;24008;42.664;23.372;2022-08-01T05:51:40;9.75;;;6.57;;
6135;SDS011;24008;42.664;23.372;2022-08-01T05:54:06;6.30;;;4.65;;
6135;SDS011;24008;42.664;23.372;2022-08-01T05:56:35;9.70;;;4.60;;
6135;SDS011;24008;42.664;23.372;2022-08-01T05:59:02;6.90;;;4.10;;
6135;SDS011;24008;42.664;23.372;2022-08-01T06:01:29;9.77;;;4.93;;
6135;SDS011;24008;42.664;23.372;2022-08-01T06:03:56;9.15;;;5.43;;
6135;SDS011;24008;42.664;23.372;2022-08-01T06:06:23;12.65;;;7.07;;
6135;SDS011;24008;42.664;23.372;2022-08-01T06:08:50;13.48;;;7.53;;
6135;SDS011;24008;42.664;23.372;2022-08-01T06:11:17;5.57;;;4.05;;
6135;SDS011;24008;42.664;23.372;2022-08-01T06:13:46;19.20;;;5.00;;
6135;SDS011;24008;42.664;23.372;2022-08-01T06:16:13;6.82;;;3.92;;
6135;SDS011;24008;42.664;23.372;2022-08-01T06:18:40;4.80;;;3.45;;
6135;SDS011;24008;42.664;23.372;2022-08-01T06:21:06;6.57;;;3.78;;
6135;SDS011;24008;42.664;23.372;2022-08-01T06:23:33;4.15;;;3.13;;
6135;SDS011;24008;42.664;23.372;2022-08-01T06:26:00;6.15;;;2.90;;
6135;SDS011;24008;42.664;23.372;2022-08-01T06:28:27;5.18;;;3.10;;
6135;SDS011;24008;42.664;23.372;2022-08-01T06:30:56;3.17;;;2.85;;
6135;SDS011;24008;42.664;23.372;2022-08-01T06:33:24;4.07;;;2.63;;
6135;SDS011;24008;42.664;23.372;2022-08-01T06:35:51;3.85;;;3.08;;
6135;SDS011;24008;42.664;23.372;2022-08-01T06:38:18;4.32;;;3.42;;
6135;SDS011;24008;42.664;23.372;2022-08-01T06:40:45;5.80;;;2.70;;
6135;SDS011;24008;42.664;23.372;2022-08-01T06:43:12;3.92;;;2.88;;
6135;SDS011;24008;42.664;23.372;2022-08-01T06:45:39;3.78;;;2.90;;
6135;SDS011;24008;42.664;23.372;2022-08-01T06:48:08;4.03;;;2.60;;
6135;SDS011;24008;42.664;23.372;2022-08-01T06:50:35;4.20;;;3.03;;
6135;SDS011;24008;42.664;23.372;2022-08-01T06:53:02;3.50;;;2.83;;
6135;SDS011;24008;42.664;23.372;2022-08-01T06:55:29;3.55;;;2.75;;
6135;SDS011;24008;42.664;23.372;2022-08-01T06:57:56;6.38;;;2.70;;
6135;SDS011;24008;42.664;23.372;2022-08-01T07:00:24;4.43;;;2.75;;
6135;SDS011;24008;42.664;23.372;2022-08-01T07:02:52;5.53;;;3.17;;
6135;SDS011;24008;42.664;23.372;2022-08-01T07:05:22;6.18;;;3.28;;
6135;SDS011;24008;42.664;23.372;2022-08-01T07:07:49;3.53;;;3.20;;
6135;SDS011;24008;42.664;23.372;2022-08-01T07:10:16;3.60;;;3.30;;
6135;SDS011;24008;42.664;23.372;2022-08-01T07:12:43;9.15;;;6.32;;
6135;SDS011;24008;42.664;23.372;2022-08-01T07:15:10;9.48;;;5.05;;
6135;SDS011;24008;42.664;23.372;2022-08-01T07:17:38;4.22;;;3.78;;
6135;SDS011;24008;42.664;23.372;2022-08-01T07:20:06;4.95;;;4.10;;
6135;SDS011;24008;42.664;23.372;2022-08-01T07:22:35;6.13;;;3.28;;
6135;SDS011;24008;42.664;23.372;2022-08-01T07:25:03;5.13;;;3.38;;
6135;SDS011;24008;42.664;23.372;2022-08-01T07:27:30;6.57;;;3.70;;
6135;SDS011;24008;42.664;23.372;2022-08-01T07:29:57;5.90;;;3.72;;
6135;SDS011;24008;42.664;23.372;2022-08-01T07:32:24;3.85;;;3.20;;
6135;SDS011;24008;42.664;23.372;2022-08-01T07:34:51;3.47;;;3.17;;
6135;SDS011;24008;42.664;23.372;2022-08-01T07:37:18;5.13;;;3.20;;
6135;SDS011;24008;42.664;23.372;2022-08-01T07:39:46;4.63;;;3.00;;
6135;SDS011;24008;42.664;23.372;2022-08-01T07:42:13;4.03;;;3.03;;
6135;SDS011;24008;42.664;23.372;2022-08-01T07:44:40;4.60;;;3.00;;
6135;SDS011;24008;42.664;23.372;2022-08-01T07:47:07;7.53;;;3.30;;
6135;SDS011;24008;42.664;23.372;2022-08-01T07:49:34;4.25;;;2.92;;
6135;SDS011;24008;42.664;23.372;2022-08-01T07:52:01;8.15;;;4.07;;
6135;SDS011;24008;42.664;23.372;2022-08-01T07:54:29;5.22;;;3.05;;
6135;SDS011;24008;42.664;23.372;2022-08-01T07:56:57;4.63;;;3.50;;
6135;SDS011;24008;42.664;23.372;2022-08-01T07:59:24;7.32;;;3.20;;
6135;SDS011;24008;42.664;23.372;2022-08-01T08:01:51;6.13;;;3.25;;
6135;SDS011;24008;42.664;23.372;2022-08-01T08:04:18;4.03;;;3.05;;
6135;SDS011;24008;42.664;23.372;2022-08-01T08:06:45;5.63;;;3.15;;
6135;SDS011;24008;42.664;23.372;2022-08-01T08:09:12;6.50;;;4.00;;
6135;SDS011;24008;42.664;23.372;2022-08-01T08:11:41;4.53;;;3.25;;
6135;SDS011;24008;42.664;23.372;2022-08-01T08:14:10;11.70;;;5.60;;
6135;SDS011;24008;42.664;23.372;2022-08-01T08:16:37;6.78;;;3.35;;
6135;SDS011;24008;42.664;23.372;2022-08-01T08:19:03;12.15;;;4.75;;
6135;SDS011;24008;42.664;23.372;2022-08-01T08:21:30;5.18;;;3.35;;
6135;SDS011;24008;42.664;23.372;2022-08-01T08:23:57;8.38;;;3.83;;
6135;SDS011;24008;42.664;23.372;2022-08-01T08:26:41;5.32;;;3.50;;
6135;SDS011;24008;42.664;23.372;2022-08-01T08:29:10;6.15;;;3.63;;
6135;SDS011;24008;42.664;23.372;2022-08-01T08:31:55;5.18;;;3.47;;
6135;SDS011;24008;42.664;23.372;2022-08-01T08:34:43;5.05;;;3.60;;
6135;SDS011;24008;42.664;23.372;2022-08-01T08:37:31;4.75;;;3.50;;
6135;SDS011;24008;42.664;23.372;2022-08-01T08:40:18;29.88;;;6.82;;
6135;SDS011;24008;42.664;23.372;2022-08-01T08:43:08;14.13;;;9.88;;
6135;SDS011;24008;42.664;23.372;2022-08-01T08:45:58;10.65;;;5.95;;
6135;SDS011;24008;42.664;23.372;2022-08-01T08:48:27;7.60;;;4.10;;
6135;SDS011;24008;42.664;23.372;2022-08-01T08:50:55;4.72;;;3.40;;
6135;SDS011;24008;42.664;23.372;2022-08-01T08:53:24;14.85;;;6.85;;
6135;SDS011;24008;42.664;23.372;2022-08-01T08:55:51;6.15;;;3.58;;
6135;SDS011;24008;42.664;23.372;2022-08-01T08:58:19;6.22;;;3.42;;
6135;SDS011;24008;42.664;23.372;2022-08-01T09:00:48;4.72;;;3.30;;
6135;SDS011;24008;42.664;23.372;2022-08-01T09:03:16;4.18;;;2.78;;
6135;SDS011;24008;42.664;23.372;2022-08-01T09:05:43;3.65;;;3.17;;
6135;SDS011;24008;42.664;23.372;2022-08-01T09:08:10;2.92;;;2.60;;
6135;SDS011;24008;42.664;23.372;2022-08-01T09:10:38;3.28;;;2.97;;
6135;SDS011;24008;42.664;23.372;2022-08-01T09:13:06;4.38;;;3.38;;
6135;SDS011;24008;42.664;23.372;2022-08-01T09:15:37;4.15;;;3.22;;
6135;SDS011;24008;42.664;23.372;2022-08-01T09:18:05;5.53;;;3.40;;
6135;SDS011;24008;42.664;23.372;2022-08-01T09:20:34;5.18;;;2.83;;
6135;SDS011;24008;42.664;23.372;2022-08-01T09:23:01;6.03;;;3.03;;
6135;SDS011;24008;42.664;23.372;2022-08-01T09:25:28;3.25;;;2.80;;
6135;SDS011;24008;42.664;23.372;2022-08-01T09:28:02;6.38;;;3.00;;
6135;SDS011;24008;42.664;23.372;2022-08-01T09:30:36;3.55;;;2.88;;
6135;SDS011;24008;42.664;23.372;2022-08-01T09:33:05;3.10;;;2.50;;
6135;SDS011;24008;42.664;23.372;2022-08-01T09:35:34;4.75;;;2.88;;
6135;SDS011;24008;42.664;23.372;2022-08-01T09:38:11;3.35;;;3.05;;
6135;SDS011;24008;42.664;23.372;2022-08-01T09:40:50;2.72;;;2.50;;
6135;SDS011;24008;42.664;23.372;2022-08-01T09:43:19;7.70;;;3.65;;
6135;SDS011;24008;42.664;23.372;2022-08-01T09:45:47;3.45;;;2.85;;
6135;SDS011;24008;42.664;23.372;2022-08-01T09:48:15;3.50;;;2.85;;
6135;SDS011;24008;42.664;23.372;2022-08-01T09:50:44;3.72;;;3.08;;
6135;SDS011;24008;42.664;23.372;2022-08-01T09:53:12;4.05;;;3.75;;
6135;SDS011;24008;42.664;23.372;2022-08-01T09:55:40;11.57;;;3.40;;
6135;SDS011;24008;42.664;23.372;2022-08-01T09:58:08;4.95;;;3.80;;
6135;SDS011;24008;42.664;23.372;2022-08-01T10:00:37;3.83;;;3.05;;
6135;SDS011;24008;42.664;23.372;2022-08-01T10:03:18;3.83;;;3.42;;
6135;SDS011;24008;42.664;23.372;2022-08-01T10:05:48;5.82;;;4.85;;
6135;SDS011;24008;42.664;23.372;2022-08-01T10:08:15;3.50;;;3.20;;
6135;SDS011;24008;42.664;23.372;2022-08-01T10:10:43;16.10;;;9.57;;
6135;SDS011;24008;42.664;23.372;2022-08-01T10:13:33;9.77;;;4.35;;
6135;SDS011;24008;42.664;23.372;2022-08-01T10:16:01;3.50;;;3.20;;
6135;SDS011;24008;42.664;23.372;2022-08-01T10:18:28;10.07;;;4.10;;
6135;SDS011;24008;42.664;23.372;2022-08-01T10:21:00;6.72;;;3.50;;
6135;SDS011;24008;42.664;23.372;2022-08-01T10:23:27;5.13;;;3.60;;
6135;SDS011;24008;42.664;23.372;2022-08-01T10:26:00;7.10;;;4.90;;
6135;SDS011;24008;42.664;23.372;2022-08-01T10:28:29;11.10;;;5.57;;
6135;SDS011;24008;42.664;23.372;2022-08-01T10:30:57;4.28;;;3.08;;
6135;SDS011;24008;42.664;23.372;2022-08-01T10:33:25;12.88;;;5.45;;
6135;SDS011;24008;42.664;23.372;2022-08-01T10:35:52;18.70;;;5.50;;
6135;SDS011;24008;42.664;23.372;2022-08-01T10:38:20;4.45;;;2.65;;
6135;SDS011;24008;42.664;23.372;2022-08-01T10:40:48;6.88;;;3.50;;
6135;SDS011;24008;42.664;23.372;2022-08-01T10:43:16;22.50;;;4.25;;
6135;SDS011;24008;42.664;23.372;2022-08-01T10:45:43;25.27;;;4.63;;
6135;SDS011;24008;42.664;23.372;2022-08-01T10:48:12;3.83;;;3.00;;
6135;SDS011;24008;42.664;23.372;2022-08-01T10:50:45;3.78;;;3.05;;
6135;SDS011;24008;42.664;23.372;2022-08-01T10:53:15;3.45;;;3.10;;
6135;SDS011;24008;42.664;23.372;2022-08-01T10:55:48;26.38;;;5.35;;
6135;SDS011;24008;42.664;23.372;2022-08-01T10:58:22;4.10;;;2.67;;
6135;SDS011;24008;42.664;23.372;2022-08-01T11:03:55;3.83;;;2.60;;
6135;SDS011;24008;42.664;23.372;2022-08-01T11:06:24;4.47;;;2.55;;
6135;SDS011;24008;42.664;23.372;2022-08-01T11:09:19;10.82;;;3.47;;
6135;SDS011;24008;42.664;23.372;2022-08-01T11:12:01;7.82;;;3.05;;
6135;SDS011;24008;42.664;23.372;2022-08-01T11:14:34;3.63;;;2.90;;
6135;SDS011;24008;42.664;23.372;2022-08-01T11:17:30;3.70;;;3.33;;
6135;SDS011;24008;42.664;23.372;2022-08-01T11:20:09;7.82;;;3.33;;
6135;SDS011;24008;42.664;23.372;2022-08-01T11:28:45;3.58;;;3.20;;
6135;SDS011;24008;42.664;23.372;2022-08-01T11:31:33;8.60;;;3.85;;
6135;SDS011;24008;42.664;23.372;2022-08-01T11:34:00;4.95;;;3.92;;
6135;SDS011;24008;42.664;23.372;2022-08-01T11:36:27;6.72;;;5.57;;
6135;SDS011;24008;42.664;23.372;2022-08-01T11:39:10;4.30;;;3.88;;
6135;SDS011;24008;42.664;23.372;2022-08-01T11:41:43;6.38;;;5.80;;
6135;SDS011;24008;42.664;23.372;2022-08-01T11:44:13;5.88;;;3.85;;
6135;SDS011;24008;42.664;23.372;2022-08-01T11:46:48;4.20;;;3.50;;
6135;SDS011;24008;42.664;23.372;2022-08-01T11:49:27;7.18;;;3.65;;
6135;SDS011;24008;42.664;23.372;2022-08-01T11:52:06;6.35;;;3.90;;
6135;SDS011;24008;42.664;23.372;2022-08-01T11:54:34;7.40;;;3.80;;
6135;SDS011;24008;42.664;23.372;2022-08-01T11:57:03;5.60;;;3.80;;
6135;SDS011;24008;42.664;23.372;2022-08-01T11:59:37;3.78;;;3.40;;
6135;SDS011;24008;42.664;23.372;2022-08-01T12:02:14;3.75;;;3.20;;
6135;SDS011;24008;42.664;23.372;2022-08-01T12:04:45;3.63;;;3.33;;
6135;SDS011;24008;42.664;23.372;2022-08-01T12:07:17;4.32;;;3.38;;
6135;SDS011;24008;42.664;23.372;2022-08-01T12:09:44;8.13;;;4.15;;
6135;SDS011;24008;42.664;23.372;2022-08-01T12:12:14;15.85;;;4.72;;
6135;SDS011;24008;42.664;23.372;2022-08-01T12:14:45;5.75;;;4.15;;
6135;SDS011;24008;42.664;23.372;2022-08-01T12:17:20;4.95;;;3.90;;
6135;SDS011;24008;42.664;23.372;2022-08-01T12:19:54;5.22;;;4.20;;
6135;SDS011;24008;42.664;23.372;2022-08-01T12:22:22;4.45;;;4.07;;
6135;SDS011;24008;42.664;23.372;2022-08-01T12:24:50;6.45;;;4.20;;
6135;SDS011;24008;42.664;23.372;2022-08-01T12:27:23;8.38;;;4.40;;
6135;SDS011;24008;42.664;23.372;2022-08-01T12:29:52;5.25;;;4.60;;
6135;SDS011;24008;42.664;23.372;2022-08-01T12:32:23;5.57;;;4.68;;
6135;SDS011;24008;42.664;23.372;2022-08-01T12:34:52;6.85;;;4.93;;
6135;SDS011;24008;42.664;23.372;2022-08-01T12:37:21;17.75;;;10.55;;
6135;SDS011;24008;42.664;23.372;2022-08-01T12:39:48;7.10;;;5.07;;
6135;SDS011;24008;42.664;23.372;2022-08-01T12:42:15;5.65;;;4.93;;
6135;SDS011;24008;42.664;23.372;2022-08-01T12:44:43;4.95;;;4.55;;
6135;SDS011;24008;42.664;23.372;2022-08-01T12:47:13;5.22;;;4.75;;
6135;SDS011;24008;42.664;23.372;2022-08-01T12:49:42;5.28;;;4.43;;
6135;SDS011;24008;42.664;23.372;2022-08-01T12:52:10;5.13;;;4.70;;
6135;SDS011;24008;42.664;23.372;2022-08-01T12:57:27;6.55;;;4.80;;
6135;SDS011;24008;42.664;23.372;2022-08-01T13:00:04;5.20;;;4.70;;
6135;SDS011;24008;42.664;23.372;2022-08-01T13:02:40;5.20;;;4.80;;
6135;SDS011;24008;42.664;23.372;2022-08-01T13:05:08;7.25;;;5.05;;
6135;SDS011;24008;42.664;23.372;2022-08-01T13:07:40;5.10;;;4.60;;
6135;SDS011;24008;42.664;23.372;2022-08-01T13:10:09;11.13;;;5.38;;
6135;SDS011;24008;42.664;23.372;2022-08-01T13:12:38;6.13;;;4.50;;
6135;SDS011;24008;42.664;23.372;2022-08-01T13:15:19;4.57;;;4.18;;
6135;SDS011;24008;42.664;23.372;2022-08-01T13:17:52;4.78;;;4.00;;
6135;SDS011;24008;42.664;23.372;2022-08-01T13:20:27;32.78;;;6.57;;
6135;SDS011;24008;42.664;23.372;2022-08-01T13:23:09;7.15;;;4.38;;
6135;SDS011;24008;42.664;23.372;2022-08-01T13:25:46;56.70;;;9.43;;
6135;SDS011;24008;42.664;23.372;2022-08-01T13:28:18;5.38;;;4.88;;
6135;SDS011;24008;42.664;23.372;2022-08-01T13:30:58;12.05;;;6.15;;
6135;SDS011;24008;42.664;23.372;2022-08-01T13:33:28;9.27;;;4.47;;
6135;SDS011;24008;42.664;23.372;2022-08-01T13:36:11;4.75;;;4.18;;
6135;SDS011;24008;42.664;23.372;2022-08-01T13:38:38;60.63;;;10.73;;
6135;SDS011;24008;42.664;23.372;2022-08-01T13:41:23;46.13;;;8.50;;
6135;SDS011;24008;42.664;23.372;2022-08-01T13:43:50;22.25;;;7.32;;
6135;SDS011;24008;42.664;23.372;2022-08-01T13:46:16;104.63;;;12.65;;
6135;SDS011;24008;42.664;23.372;2022-08-01T13:48:45;14.57;;;6.32;;
6135;SDS011;24008;42.664;23.372;2022-08-01T13:51:12;4.85;;;4.45;;
6135;SDS011;24008;42.664;23.372;2022-08-01T13:53:39;7.30;;;4.60;;
6135;SDS011;24008;42.664;23.372;2022-08-01T13:56:06;8.45;;;4.72;;
6135;SDS011;24008;42.664;23.372;2022-08-01T13:58:33;10.48;;;5.18;;
6135;SDS011;24008;42.664;23.372;2022-08-01T14:01:00;5.03;;;3.95;;
6135;SDS011;24008;42.664;23.372;2022-08-01T14:03:27;4.63;;;4.13;;
6135;SDS011;24008;42.664;23.372;2022-08-01T14:05:55;16.90;;;8.20;;
6135;SDS011;24008;42.664;23.372;2022-08-01T14:08:22;6.93;;;4.60;;
6135;SDS011;24008;42.664;23.372;2022-08-01T14:11:42;7.70;;;4.82;;
6135;SDS011;24008;42.664;23.372;2022-08-01T14:14:09;7.85;;;5.25;;
6135;SDS011;24008;42.664;23.372;2022-08-01T14:16:36;5.07;;;4.57;;
6135;SDS011;24008;42.664;23.372;2022-08-01T14:19:04;5.70;;;4.82;;
6135;SDS011;24008;42.664;23.372;2022-08-01T14:21:31;5.82;;;5.00;;
6135;SDS011;24008;42.664;23.372;2022-08-01T14:23:58;6.55;;;5.90;;
6135;SDS011;24008;42.664;23.372;2022-08-01T14:26:25;5.57;;;4.13;;
6135;SDS011;24008;42.664;23.372;2022-08-01T14:28:53;4.60;;;4.20;;
6135;SDS011;24008;42.664;23.372;2022-08-01T14:31:20;4.75;;;4.30;;
6135;SDS011;24008;42.664;23.372;2022-08-01T14:33:47;4.60;;;4.20;;
6135;SDS011;24008;42.664;23.372;2022-08-01T14:36:14;4.88;;;4.30;;
6135;SDS011;24008;42.664;23.372;2022-08-01T14:38:40;5.22;;;4.15;;
6135;SDS011;24008;42.664;23.372;2022-08-01T14:41:07;4.78;;;4.22;;
6135;SDS011;24008;42.664;23.372;2022-08-01T14:43:35;4.55;;;3.80;;
6135;SDS011;24008;42.664;23.372;2022-08-01T14:46:03;4.50;;;4.10;;
6135;SDS011;24008;42.664;23.372;2022-08-01T14:48:30;4.65;;;3.80;;
6135;SDS011;24008;42.664;23.372;2022-08-01T14:50:58;4.18;;;3.78;;
6135;SDS011;24008;42.664;23.372;2022-08-01T14:53:27;4.60;;;4.20;;
6135;SDS011;24008;42.664;23.372;2022-08-01T14:55:54;4.28;;;3.97;;
6135;SDS011;24008;42.664;23.372;2022-08-01T14:58:21;5.60;;;4.38;;
6135;SDS011;24008;42.664;23.372;2022-08-01T15:00:48;5.13;;;4.10;;
6135;SDS011;24008;42.664;23.372;2022-08-01T15:03:20;4.57;;;4.18;;
6135;SDS011;24008;42.664;23.372;2022-08-01T15:05:47;5.10;;;4.13;;
6135;SDS011;24008;42.664;23.372;2022-08-01T15:08:14;4.38;;;3.97;;
6135;SDS011;24008;42.664;23.372;2022-08-01T15:10:41;6.20;;;5.32;;